sensor_id;sensor_type;location;lat;lon;timestamp;temperature;humidity
65038;DHT22;51605;47.040;15.294;2023-11-21T00:00:00;21.80;47.70
65038;DHT22;51605;47.040;15.294;2023-11-21T00:02:26;21.80;47.80
65038;DHT22;51605;47.040;15.294;2023-11-21T00:04:53;21.80;47.70
65038;DHT22;51605;47.040;15.294;2023-11-21T00:07:19;21.80;47.70
65038;DHT22;51605;47.040;15.294;2023-11-21T00:09:46;21.80;47.70
65038;DHT22;51605;47.040;15.294;2023-11-21T00:12:12;21.80;47.70
65038;DHT22;51605;47.040;15.294;2023-11-21T00:14:39;21.80;47.70
65038;DHT22;51605;47.040;15.294;2023-11-21T00:17:06;21.80;47.70
65038;DHT22;51605;47.040;15.294;2023-11-21T00:19:32;21.80;47.80
65038;DHT22;51605;47.040;15.294;2023-11-21T00:21:58;21.80;47.70
65038;DHT22;51605;47.040;15.294;2023-11-21T00:24:24;21.80;47.70
65038;DHT22;51605;47.040;15.294;2023-11-21T00:26:51;21.80;47.80
65038;DHT22;51605;47.040;15.294;2023-11-21T00:29:16;21.80;47.80
65038;DHT22;51605;47.040;15.294;2023-11-21T00:31:44;21.80;47.80
65038;DHT22;51605;47.040;15.294;2023-11-21T00:34:11;21.80;47.80
65038;DHT22;51605;47.040;15.294;2023-11-21T00:36:36;21.90;47.60
65038;DHT22;51605;47.040;15.294;2023-11-21T00:39:02;21.80;47.70
65038;DHT22;51605;47.040;15.294;2023-11-21T00:41:28;21.90;47.80
65038;DHT22;51605;47.040;15.294;2023-11-21T00:43:54;21.80;47.70
65038;DHT22;51605;47.040;15.294;2023-11-21T00:46:20;21.80;47.70
65038;DHT22;51605;47.040;15.294;2023-11-21T00:48:46;21.80;47.70
65038;DHT22;51605;47.040;15.294;2023-11-21T00:51:12;21.80;47.70
65038;DHT22;51605;47.040;15.294;2023-11-21T00:53:37;21.80;47.70
65038;DHT22;51605;47.040;15.294;2023-11-21T00:56:03;21.80;47.70
65038;DHT22;51605;47.040;15.294;2023-11-21T00:58:29;21.80;47.70
65038;DHT22;51605;47.040;15.294;2023-11-21T01:00:55;21.90;47.70
65038;DHT22;51605;47.040;15.294;2023-11-21T01:03:21;21.80;47.70
65038;DHT22;51605;47.040;15.294;2023-11-21T01:05:47;21.80;47.70
65038;DHT22;51605;47.040;15.294;2023-11-21T01:08:15;21.90;47.80
65038;DHT22;51605;47.040;15.294;2023-11-21T01:10:40;21.90;47.70
65038;DHT22;51605;47.040;15.294;2023-11-21T01:13:06;21.80;47.70
65038;DHT22;51605;47.040;15.294;2023-11-21T01:15:33;21.90;47.80
65038;DHT22;51605;47.040;15.294;2023-11-21T01:17:58;21.80;47.70
65038;DHT22;51605;47.040;15.294;2023-11-21T01:20:24;21.80;47.70
65038;DHT22;51605;47.040;15.294;2023-11-21T01:22:50;21.80;47.70
65038;DHT22;51605;47.040;15.294;2023-11-21T01:25:15;21.80;47.70
65038;DHT22;51605;47.040;15.294;2023-11-21T01:27:42;21.80;47.80
65038;DHT22;51605;47.040;15.294;2023-11-21T01:30:08;21.80;47.70
65038;DHT22;51605;47.040;15.294;2023-11-21T01:32:36;21.80;47.70
65038;DHT22;51605;47.040;15.294;2023-11-21T01:35:03;21.90;47.70
65038;DHT22;51605;47.040;15.294;2023-11-21T01:37:30;21.80;47.70
65038;DHT22;51605;47.040;15.294;2023-11-21T01:39:56;21.80;47.70
65038;DHT22;51605;47.040;15.294;2023-11-21T01:42:22;21.80;47.80
65038;DHT22;51605;47.040;15.294;2023-11-21T01:44:48;21.80;47.70
65038;DHT22;51605;47.040;15.294;2023-11-21T01:47:14;21.80;47.70
65038;DHT22;51605;47.040;15.294;2023-11-21T01:49:43;21.80;47.80
65038;DHT22;51605;47.040;15.294;2023-11-21T01:52:09;21.80;47.70
65038;DHT22;51605;47.040;15.294;2023-11-21T01:54:36;21.80;47.70
65038;DHT22;51605;47.040;15.294;2023-11-21T01:57:04;21.80;47.80
65038;DHT22;51605;47.040;15.294;2023-11-21T01:59:36;21.80;47.80
65038;DHT22;51605;47.040;15.294;2023-11-21T02:02:08;21.80;47.70
65038;DHT22;51605;47.040;15.294;2023-11-21T02:04:35;21.80;47.70
65038;DHT22;51605;47.040;15.294;2023-11-21T02:07:03;21.80;47.70
65038;DHT22;51605;47.040;15.294;2023-11-21T02:09:32;21.80;47.70
65038;DHT22;51605;47.040;15.294;2023-11-21T02:12:04;21.80;47.80
65038;DHT22;51605;47.040;15.294;2023-11-21T02:14:30;21.80;47.80
65038;DHT22;51605;47.040;15.294;2023-11-21T02:16:56;21.80;47.80
65038;DHT22;51605;47.040;15.294;2023-11-21T02:19:23;21.80;47.70
65038;DHT22;51605;47.040;15.294;2023-11-21T02:21:51;21.80;47.70
65038;DHT22;51605;47.040;15.294;2023-11-21T02:24:21;21.80;47.70
65038;DHT22;51605;47.040;15.294;2023-11-21T02:26:47;21.80;47.70
65038;DHT22;51605;47.040;15.294;2023-11-21T02:29:13;21.80;47.70
65038;DHT22;51605;47.040;15.294;2023-11-21T02:31:39;21.80;47.70
65038;DHT22;51605;47.040;15.294;2023-11-21T02:34:17;21.80;48.10
65038;DHT22;51605;47.040;15.294;2023-11-21T02:36:44;21.80;47.70
65038;DHT22;51605;47.040;15.294;2023-11-21T02:39:10;21.80;47.70
65038;DHT22;51605;47.040;15.294;2023-11-21T02:41:39;21.80;47.70
65038;DHT22;51605;47.040;15.294;2023-11-21T02:44:06;21.80;47.70
65038;DHT22;51605;47.040;15.294;2023-11-21T02:46:35;21.80;47.70
65038;DHT22;51605;47.040;15.294;2023-11-21T02:49:02;21.80;47.70
65038;DHT22;51605;47.040;15.294;2023-11-21T02:51:28;21.80;47.70
65038;DHT22;51605;47.040;15.294;2023-11-21T02:53:54;21.80;47.70
65038;DHT22;51605;47.040;15.294;2023-11-21T02:56:20;21.80;48.70
65038;DHT22;51605;47.040;15.294;2023-11-21T02:58:45;21.80;47.80
65038;DHT22;51605;47.040;15.294;2023-11-21T03:01:11;21.80;47.70
65038;DHT22;51605;47.040;15.294;2023-11-21T03:03:39;21.80;47.70
65038;DHT22;51605;47.040;15.294;2023-11-21T03:06:07;21.80;47.60
65038;DHT22;51605;47.040;15.294;2023-11-21T03:08:33;21.80;47.60
65038;DHT22;51605;47.040;15.294;2023-11-21T03:10:59;21.80;47.70
65038;DHT22;51605;47.040;15.294;2023-11-21T03:13:25;21.80;47.70
65038;DHT22;51605;47.040;15.294;2023-11-21T03:15:50;21.80;47.70
65038;DHT22;51605;47.040;15.294;2023-11-21T03:18:16;21.80;47.80
65038;DHT22;51605;47.040;15.294;2023-11-21T03:20:43;21.80;47.70
65038;DHT22;51605;47.040;15.294;2023-11-21T03:23:11;21.80;47.70
65038;DHT22;51605;47.040;15.294;2023-11-21T03:25:37;21.80;47.80
65038;DHT22;51605;47.040;15.294;2023-11-21T03:28:03;21.80;47.70
65038;DHT22;51605;47.040;15.294;2023-11-21T03:30:29;21.80;47.70
65038;DHT22;51605;47.040;15.294;2023-11-21T03:32:54;21.80;47.70
65038;DHT22;51605;47.040;15.294;2023-11-21T03:35:20;21.80;47.70
65038;DHT22;51605;47.040;15.294;2023-11-21T03:37:47;21.80;47.70
65038;DHT22;51605;47.040;15.294;2023-11-21T03:40:12;21.80;47.70
65038;DHT22;51605;47.040;15.294;2023-11-21T03:42:39;21.80;47.80
65038;DHT22;51605;47.040;15.294;2023-11-21T03:45:05;21.80;47.70
65038;DHT22;51605;47.040;15.294;2023-11-21T03:47:31;21.80;47.80
65038;DHT22;51605;47.040;15.294;2023-11-21T03:49:57;21.80;47.80
65038;DHT22;51605;47.040;15.294;2023-11-21T03:52:24;21.80;47.70
65038;DHT22;51605;47.040;15.294;2023-11-21T03:54:50;21.80;47.70
65038;DHT22;51605;47.040;15.294;2023-11-21T03:57:16;21.80;47.70
65038;DHT22;51605;47.040;15.294;2023-11-21T03:59:42;21.80;47.80
65038;DHT22;51605;47.040;15.294;2023-11-21T04:02:09;21.80;47.80
65038;DHT22;51605;47.040;15.294;2023-11-21T04:04:35;21.80;47.80
65038;DHT22;51605;47.040;15.294;2023-11-21T04:07:01;21.80;47.80
65038;DHT22;51605;47.040;15.294;2023-11-21T04:09:27;21.80;47.80
65038;DHT22;51605;47.040;15.294;2023-11-21T04:11:53;21.80;47.70
65038;DHT22;51605;47.040;15.294;2023-11-21T04:14:20;21.80;47.70
65038;DHT22;51605;47.040;15.294;2023-11-21T04:16:45;21.80;47.80
65038;DHT22;51605;47.040;15.294;2023-11-21T04:19:11;21.80;47.80
65038;DHT22;51605;47.040;15.294;2023-11-21T04:21:40;21.80;47.80
65038;DHT22;51605;47.040;15.294;2023-11-21T04:24:06;21.80;47.80
65038;DHT22;51605;47.040;15.294;2023-11-21T04:26:32;21.80;47.80
65038;DHT22;51605;47.040;15.294;2023-11-21T04:28:57;21.80;47.80
65038;DHT22;51605;47.040;15.294;2023-11-21T04:31:23;21.80;47.80
65038;DHT22;51605;47.040;15.294;2023-11-21T04:33:49;21.80;47.80
65038;DHT22;51605;47.040;15.294;2023-11-21T04:36:14;21.80;47.80
65038;DHT22;51605;47.040;15.294;2023-11-21T04:38:40;21.80;47.80
65038;DHT22;51605;47.040;15.294;2023-11-21T04:41:06;21.80;47.70
65038;DHT22;51605;47.040;15.294;2023-11-21T04:43:32;21.80;47.70
65038;DHT22;51605;47.040;15.294;2023-11-21T04:45:57;21.80;47.80
65038;DHT22;51605;47.040;15.294;2023-11-21T04:48:23;21.80;47.80
65038;DHT22;51605;47.040;15.294;2023-11-21T04:50:48;21.80;47.80
65038;DHT22;51605;47.040;15.294;2023-11-21T04:53:14;21.80;47.80
65038;DHT22;51605;47.040;15.294;2023-11-21T04:55:43;21.80;47.80
65038;DHT22;51605;47.040;15.294;2023-11-21T04:58:09;21.80;47.80
65038;DHT22;51605;47.040;15.294;2023-11-21T05:00:35;21.80;47.80
65038;DHT22;51605;47.040;15.294;2023-11-21T05:03:02;21.80;48.30
65038;DHT22;51605;47.040;15.294;2023-11-21T05:05:29;21.80;48.50
65038;DHT22;51605;47.040;15.294;2023-11-21T05:07:55;21.80;48.60
65038;DHT22;51605;47.040;15.294;2023-11-21T05:10:21;21.90;48.40
65038;DHT22;51605;47.040;15.294;2023-11-21T05:12:48;21.90;48.60
65038;DHT22;51605;47.040;15.294;2023-11-21T05:15:18;21.90;48.30
65038;DHT22;51605;47.040;15.294;2023-11-21T05:17:44;21.80;48.20
65038;DHT22;51605;47.040;15.294;2023-11-21T05:20:11;21.80;48.10
65038;DHT22;51605;47.040;15.294;2023-11-21T05:22:38;21.80;48.10
65038;DHT22;51605;47.040;15.294;2023-11-21T05:25:05;21.80;48.10
65038;DHT22;51605;47.040;15.294;2023-11-21T05:27:32;21.80;48.00
65038;DHT22;51605;47.040;15.294;2023-11-21T05:29:58;21.90;48.10
65038;DHT22;51605;47.040;15.294;2023-11-21T05:32:25;21.80;48.00
65038;DHT22;51605;47.040;15.294;2023-11-21T05:34:51;21.80;48.00
65038;DHT22;51605;47.040;15.294;2023-11-21T05:37:17;21.80;48.00
65038;DHT22;51605;47.040;15.294;2023-11-21T05:39:43;21.80;48.00
65038;DHT22;51605;47.040;15.294;2023-11-21T05:42:09;21.80;47.90
65038;DHT22;51605;47.040;15.294;2023-11-21T05:44:37;21.80;48.00
65038;DHT22;51605;47.040;15.294;2023-11-21T05:47:05;21.80;47.90
65038;DHT22;51605;47.040;15.294;2023-11-21T05:49:32;21.80;48.00
65038;DHT22;51605;47.040;15.294;2023-11-21T05:51:58;21.80;47.90
65038;DHT22;51605;47.040;15.294;2023-11-21T05:54:25;21.80;47.90
65038;DHT22;51605;47.040;15.294;2023-11-21T05:56:51;21.90;48.00
65038;DHT22;51605;47.040;15.294;2023-11-21T05:59:17;21.80;47.90
65038;DHT22;51605;47.040;15.294;2023-11-21T06:01:42;21.80;47.80
65038;DHT22;51605;47.040;15.294;2023-11-21T06:04:08;21.80;47.80
65038;DHT22;51605;47.040;15.294;2023-11-21T06:06:35;21.80;47.90
65038;DHT22;51605;47.040;15.294;2023-11-21T06:09:01;21.80;47.90
65038;DHT22;51605;47.040;15.294;2023-11-21T06:11:26;21.80;47.90
65038;DHT22;51605;47.040;15.294;2023-11-21T06:13:52;21.80;48.00
65038;DHT22;51605;47.040;15.294;2023-11-21T06:16:19;21.80;48.00
65038;DHT22;51605;47.040;15.294;2023-11-21T06:18:47;21.80;48.00
65038;DHT22;51605;47.040;15.294;2023-11-21T06:21:13;21.80;47.90
65038;DHT22;51605;47.040;15.294;2023-11-21T06:23:39;21.80;47.90
65038;DHT22;51605;47.040;15.294;2023-11-21T06:26:05;21.80;48.00
65038;DHT22;51605;47.040;15.294;2023-11-21T06:28:32;21.80;47.90
65038;DHT22;51605;47.040;15.294;2023-11-21T06:30:58;21.80;47.90
65038;DHT22;51605;47.040;15.294;2023-11-21T06:33:24;21.80;47.90
65038;DHT22;51605;47.040;15.294;2023-11-21T06:35:50;21.80;47.90
65038;DHT22;51605;47.040;15.294;2023-11-21T06:38:16;21.80;47.90
65038;DHT22;51605;47.040;15.294;2023-11-21T06:40:42;21.80;47.90
65038;DHT22;51605;47.040;15.294;2023-11-21T06:43:09;21.80;47.80
65038;DHT22;51605;47.040;15.294;2023-11-21T06:45:35;21.80;48.00
65038;DHT22;51605;47.040;15.294;2023-11-21T06:48:01;21.80;48.00
65038;DHT22;51605;47.040;15.294;2023-11-21T06:50:26;21.80;47.90
65038;DHT22;51605;47.040;15.294;2023-11-21T06:52:52;21.80;47.90
65038;DHT22;51605;47.040;15.294;2023-11-21T06:55:17;21.80;47.90
65038;DHT22;51605;47.040;15.294;2023-11-21T06:57:43;21.80;47.90
65038;DHT22;51605;47.040;15.294;2023-11-21T07:00:10;21.80;48.00
65038;DHT22;51605;47.040;15.294;2023-11-21T07:02:36;21.80;48.00
65038;DHT22;51605;47.040;15.294;2023-11-21T07:05:02;21.80;48.00
65038;DHT22;51605;47.040;15.294;2023-11-21T07:07:28;21.80;48.00
65038;DHT22;51605;47.040;15.294;2023-11-21T07:09:54;21.80;48.00
65038;DHT22;51605;47.040;15.294;2023-11-21T07:12:19;21.80;48.00
65038;DHT22;51605;47.040;15.294;2023-11-21T07:14:49;21.80;47.90
65038;DHT22;51605;47.040;15.294;2023-11-21T07:17:14;21.80;48.00
65038;DHT22;51605;47.040;15.294;2023-11-21T07:19:41;21.80;48.00
65038;DHT22;51605;47.040;15.294;2023-11-21T07:22:07;21.80;48.00
65038;DHT22;51605;47.040;15.294;2023-11-21T07:24:34;21.80;48.00
65038;DHT22;51605;47.040;15.294;2023-11-21T07:27:00;21.80;48.00
65038;DHT22;51605;47.040;15.294;2023-11-21T07:29:26;21.80;48.00
65038;DHT22;51605;47.040;15.294;2023-11-21T07:31:52;21.80;47.90
65038;DHT22;51605;47.040;15.294;2023-11-21T07:34:20;21.80;48.00
65038;DHT22;51605;47.040;15.294;2023-11-21T07:36:46;21.80;48.00
65038;DHT22;51605;47.040;15.294;2023-11-21T07:39:12;21.80;48.00
65038;DHT22;51605;47.040;15.294;2023-11-21T07:41:38;21.80;47.90
65038;DHT22;51605;47.040;15.294;2023-11-21T07:44:10;21.80;48.00
65038;DHT22;51605;47.040;15.294;2023-11-21T07:46:36;21.80;48.00
65038;DHT22;51605;47.040;15.294;2023-11-21T07:49:01;21.80;48.00
65038;DHT22;51605;47.040;15.294;2023-11-21T07:51:27;21.80;48.00
65038;DHT22;51605;47.040;15.294;2023-11-21T07:53:52;21.80;48.00
65038;DHT22;51605;47.040;15.294;2023-11-21T07:56:18;21.80;48.00
65038;DHT22;51605;47.040;15.294;2023-11-21T07:58:44;21.80;48.00
65038;DHT22;51605;47.040;15.294;2023-11-21T08:01:10;21.80;48.00
65038;DHT22;51605;47.040;15.294;2023-11-21T08:03:35;21.80;48.00
65038;DHT22;51605;47.040;15.294;2023-11-21T08:06:01;21.80;48.00
65038;DHT22;51605;47.040;15.294;2023-11-21T08:08:28;21.80;48.10
65038;DHT22;51605;47.040;15.294;2023-11-21T08:10:54;21.80;48.00
65038;DHT22;51605;47.040;15.294;2023-11-21T08:13:24;21.80;47.90
65038;DHT22;51605;47.040;15.294;2023-11-21T08:15:49;21.80;47.90
65038;DHT22;51605;47.040;15.294;2023-11-21T08:18:15;21.80;48.00
65038;DHT22;51605;47.040;15.294;2023-11-21T08:20:42;21.80;47.90
65038;DHT22;51605;47.040;15.294;2023-11-21T08:23:08;21.80;47.90
65038;DHT22;51605;47.040;15.294;2023-11-21T08:25:34;21.80;47.90
65038;DHT22;51605;47.040;15.294;2023-11-21T08:28:00;21.80;48.00
65038;DHT22;51605;47.040;15.294;2023-11-21T08:30:27;21.80;48.00
65038;DHT22;51605;47.040;15.294;2023-11-21T08:32:55;21.80;48.00
65038;DHT22;51605;47.040;15.294;2023-11-21T08:35:26;21.80;48.10
65038;DHT22;51605;47.040;15.294;2023-11-21T08:37:52;21.80;48.10
65038;DHT22;51605;47.040;15.294;2023-11-21T08:40:20;21.80;48.00
65038;DHT22;51605;47.040;15.294;2023-11-21T08:42:46;21.80;48.00
65038;DHT22;51605;47.040;15.294;2023-11-21T08:45:16;21.80;48.10
65038;DHT22;51605;47.040;15.294;2023-11-21T08:47:43;21.80;48.00
65038;DHT22;51605;47.040;15.294;2023-11-21T08:50:10;21.80;48.10
65038;DHT22;51605;47.040;15.294;2023-11-21T08:52:37;21.80;48.00
65038;DHT22;51605;47.040;15.294;2023-11-21T08:55:04;21.80;48.00
65038;DHT22;51605;47.040;15.294;2023-11-21T08:57:36;21.80;48.10
65038;DHT22;51605;47.040;15.294;2023-11-21T09:00:03;21.80;48.00
65038;DHT22;51605;47.040;15.294;2023-11-21T09:02:33;21.80;48.00
65038;DHT22;51605;47.040;15.294;2023-11-21T09:05:00;21.80;48.00
65038;DHT22;51605;47.040;15.294;2023-11-21T09:07:28;21.80;48.00
65038;DHT22;51605;47.040;15.294;2023-11-21T09:09:54;21.80;48.70
65038;DHT22;51605;47.040;15.294;2023-11-21T09:12:20;21.80;48.00
65038;DHT22;51605;47.040;15.294;2023-11-21T09:14:46;21.80;48.00
65038;DHT22;51605;47.040;15.294;2023-11-21T09:17:11;21.80;48.00
65038;DHT22;51605;47.040;15.294;2023-11-21T09:19:40;21.80;48.00
65038;DHT22;51605;47.040;15.294;2023-11-21T09:22:07;21.80;48.00
65038;DHT22;51605;47.040;15.294;2023-11-21T09:24:33;21.80;48.00
65038;DHT22;51605;47.040;15.294;2023-11-21T09:26:59;21.80;48.00
65038;DHT22;51605;47.040;15.294;2023-11-21T09:29:28;21.80;48.00
65038;DHT22;51605;47.040;15.294;2023-11-21T09:31:54;21.80;48.00
65038;DHT22;51605;47.040;15.294;2023-11-21T09:34:21;21.80;48.00
65038;DHT22;51605;47.040;15.294;2023-11-21T09:36:47;21.80;48.10
65038;DHT22;51605;47.040;15.294;2023-11-21T09:39:13;21.80;48.00
65038;DHT22;51605;47.040;15.294;2023-11-21T09:41:50;21.80;48.00
65038;DHT22;51605;47.040;15.294;2023-11-21T09:44:25;21.80;48.00
65038;DHT22;51605;47.040;15.294;2023-11-21T09:46:54;21.80;48.00
65038;DHT22;51605;47.040;15.294;2023-11-21T09:49:23;21.80;48.10
65038;DHT22;51605;47.040;15.294;2023-11-21T09:51:55;21.80;48.00
65038;DHT22;51605;47.040;15.294;2023-11-21T09:54:22;21.80;48.00
65038;DHT22;51605;47.040;15.294;2023-11-21T09:56:49;21.80;48.10
65038;DHT22;51605;47.040;15.294;2023-11-21T09:59:15;21.80;48.10
65038;DHT22;51605;47.040;15.294;2023-11-21T10:01:42;21.80;48.10
65038;DHT22;51605;47.040;15.294;2023-11-21T10:04:08;21.80;48.10
65038;DHT22;51605;47.040;15.294;2023-11-21T10:06:41;21.80;48.00
65038;DHT22;51605;47.040;15.294;2023-11-21T10:09:15;21.80;48.00
65038;DHT22;51605;47.040;15.294;2023-11-21T10:11:42;21.80;47.90
65038;DHT22;51605;47.040;15.294;2023-11-21T10:14:11;21.80;48.90
65038;DHT22;51605;47.040;15.294;2023-11-21T10:16:38;21.80;48.00
65038;DHT22;51605;47.040;15.294;2023-11-21T10:19:05;21.80;48.00
65038;DHT22;51605;47.040;15.294;2023-11-21T10:21:35;21.80;48.00
65038;DHT22;51605;47.040;15.294;2023-11-21T10:24:01;21.80;48.00
65038;DHT22;51605;47.040;15.294;2023-11-21T10:26:28;21.80;48.00
65038;DHT22;51605;47.040;15.294;2023-11-21T10:29:00;21.80;48.10
65038;DHT22;51605;47.040;15.294;2023-11-21T10:31:30;21.80;48.10
65038;DHT22;51605;47.040;15.294;2023-11-21T10:34:14;21.80;48.00
65038;DHT22;51605;47.040;15.294;2023-11-21T10:36:41;21.80;48.10
65038;DHT22;51605;47.040;15.294;2023-11-21T10:39:06;21.80;48.00
65038;DHT22;51605;47.040;15.294;2023-11-21T10:41:33;21.80;48.10
65038;DHT22;51605;47.040;15.294;2023-11-21T10:43:59;21.80;48.10
65038;DHT22;51605;47.040;15.294;2023-11-21T10:46:25;21.80;48.10
65038;DHT22;51605;47.040;15.294;2023-11-21T10:48:53;21.80;48.00
65038;DHT22;51605;47.040;15.294;2023-11-21T10:51:21;21.80;48.00
65038;DHT22;51605;47.040;15.294;2023-11-21T10:53:47;21.80;48.10
65038;DHT22;51605;47.040;15.294;2023-11-21T10:56:16;21.80;48.10
65038;DHT22;51605;47.040;15.294;2023-11-21T10:58:45;21.80;48.10
65038;DHT22;51605;47.040;15.294;2023-11-21T11:01:11;21.80;48.10
65038;DHT22;51605;47.040;15.294;2023-11-21T11:03:40;21.80;48.10
65038;DHT22;51605;47.040;15.294;2023-11-21T11:06:06;21.80;48.10
65038;DHT22;51605;47.040;15.294;2023-11-21T11:08:37;21.80;48.10
65038;DHT22;51605;47.040;15.294;2023-11-21T11:11:07;21.80;48.00
65038;DHT22;51605;47.040;15.294;2023-11-21T11:13:35;21.80;48.10
65038;DHT22;51605;47.040;15.294;2023-11-21T11:16:01;21.80;48.00
65038;DHT22;51605;47.040;15.294;2023-11-21T11:18:30;21.80;48.10
65038;DHT22;51605;47.040;15.294;2023-11-21T11:29:22;21.80;48.20
65038;DHT22;51605;47.040;15.294;2023-11-21T11:32:00;21.80;48.10
65038;DHT22;51605;47.040;15.294;2023-11-21T11:34:32;21.80;48.10
65038;DHT22;51605;47.040;15.294;2023-11-21T11:37:05;21.80;48.10
65038;DHT22;51605;47.040;15.294;2023-11-21T11:39:38;21.80;48.10
65038;DHT22;51605;47.040;15.294;2023-11-21T11:42:06;21.80;48.10
65038;DHT22;51605;47.040;15.294;2023-11-21T11:50:14;21.80;48.20
65038;DHT22;51605;47.040;15.294;2023-11-21T11:52:46;21.70;48.20
65038;DHT22;51605;47.040;15.294;2023-11-21T11:55:14;21.80;48.20
65038;DHT22;51605;47.040;15.294;2023-11-21T11:57:43;21.70;48.20
65038;DHT22;51605;47.040;15.294;2023-11-21T12:00:32;21.80;48.20
65038;DHT22;51605;47.040;15.294;2023-11-21T12:03:03;21.80;48.20
65038;DHT22;51605;47.040;15.294;2023-11-21T12:05:31;21.80;48.20
65038;DHT22;51605;47.040;15.294;2023-11-21T12:08:11;21.80;48.10
65038;DHT22;51605;47.040;15.294;2023-11-21T12:10:38;21.80;48.20
65038;DHT22;51605;47.040;15.294;2023-11-21T12:13:09;21.80;48.20
65038;DHT22;51605;47.040;15.294;2023-11-21T12:15:36;21.80;48.20
65038;DHT22;51605;47.040;15.294;2023-11-21T12:18:02;21.70;48.10
65038;DHT22;51605;47.040;15.294;2023-11-21T12:20:29;21.80;48.10
65038;DHT22;51605;47.040;15.294;2023-11-21T12:22:58;21.80;48.10
65038;DHT22;51605;47.040;15.294;2023-11-21T12:25:31;21.80;48.20
65038;DHT22;51605;47.040;15.294;2023-11-21T12:27:58;21.80;48.20
65038;DHT22;51605;47.040;15.294;2023-11-21T12:30:29;21.80;48.20
65038;DHT22;51605;47.040;15.294;2023-11-21T12:32:57;21.80;48.10
65038;DHT22;51605;47.040;15.294;2023-11-21T12:35:27;21.80;48.00
65038;DHT22;51605;47.040;15.294;2023-11-21T12:37:54;21.80;48.00
65038;DHT22;51605;47.040;15.294;2023-11-21T12:40:20;21.80;48.00
65038;DHT22;51605;47.040;15.294;2023-11-21T12:42:52;21.80;48.00
65038;DHT22;51605;47.040;15.294;2023-11-21T12:47:47;21.80;48.10
65038;DHT22;51605;47.040;15.294;2023-11-21T12:50:14;21.80;48.10
65038;DHT22;51605;47.040;15.294;2023-11-21T12:52:42;21.80;48.20
65038;DHT22;51605;47.040;15.294;2023-11-21T12:55:09;21.80;48.20
65038;DHT22;51605;47.040;15.294;2023-11-21T12:57:35;21.80;48.20
65038;DHT22;51605;47.040;15.294;2023-11-21T13:00:04;21.80;48.20
65038;DHT22;51605;47.040;15.294;2023-11-21T13:02:37;21.80;48.20
65038;DHT22;51605;47.040;15.294;2023-11-21T13:05:04;21.80;48.20
65038;DHT22;51605;47.040;15.294;2023-11-21T13:07:44;21.80;48.20
65038;DHT22;51605;47.040;15.294;2023-11-21T13:10:13;21.80;48.20
65038;DHT22;51605;47.040;15.294;2023-11-21T13:12:45;21.80;48.20
65038;DHT22;51605;47.040;15.294;2023-11-21T13:15:15;21.80;48.20
65038;DHT22;51605;47.040;15.294;2023-11-21T13:17:44;21.80;48.20
65038;DHT22;51605;47.040;15.294;2023-11-21T13:20:13;21.80;48.20
65038;DHT22;51605;47.040;15.294;2023-11-21T13:22:56;21.70;48.10
65038;DHT22;51605;47.040;15.294;2023-11-21T13:25:25;21.80;48.20
65038;DHT22;51605;47.040;15.294;2023-11-21T13:27:57;21.80;48.20
65038;DHT22;51605;47.040;15.294;2023-11-21T13:30:24;21.80;48.20
65038;DHT22;51605;47.040;15.294;2023-11-21T13:32:54;21.80;48.30
65038;DHT22;51605;47.040;15.294;2023-11-21T13:35:28;21.80;48.20
65038;DHT22;51605;47.040;15.294;2023-11-21T13:38:07;21.80;48.20
65038;DHT22;51605;47.040;15.294;2023-11-21T13:40:37;21.80;48.20
65038;DHT22;51605;47.040;15.294;2023-11-21T13:43:13;21.80;48.20
65038;DHT22;51605;47.040;15.294;2023-11-21T13:45:40;21.80;48.20
65038;DHT22;51605;47.040;15.294;2023-11-21T13:48:06;21.80;48.20
65038;DHT22;51605;47.040;15.294;2023-11-21T13:50:39;21.80;48.20
65038;DHT22;51605;47.040;15.294;2023-11-21T13:53:10;21.80;48.20
65038;DHT22;51605;47.040;15.294;2023-11-21T13:55:45;21.80;48.20
65038;DHT22;51605;47.040;15.294;2023-11-21T13:58:11;21.80;48.20
65038;DHT22;51605;47.040;15.294;2023-11-21T14:00:41;21.80;48.20
65038;DHT22;51605;47.040;15.294;2023-11-21T14:03:10;21.80;48.20
65038;DHT22;51605;47.040;15.294;2023-11-21T14:05:44;21.80;48.20
65038;DHT22;51605;47.040;15.294;2023-11-21T14:08:12;21.80;48.20
65038;DHT22;51605;47.040;15.294;2023-11-21T14:10:42;21.80;48.20
65038;DHT22;51605;47.040;15.294;2023-11-21T14:13:16;21.80;48.20
65038;DHT22;51605;47.040;15.294;2023-11-21T14:15:42;21.80;48.20
65038;DHT22;51605;47.040;15.294;2023-11-21T14:18:11;21.80;48.30
65038;DHT22;51605;47.040;15.294;2023-11-21T14:20:40;21.80;48.20
65038;DHT22;51605;47.040;15.294;2023-11-21T14:23:07;21.80;48.20
65038;DHT22;51605;47.040;15.294;2023-11-21T14:25:37;21.80;48.20
65038;DHT22;51605;47.040;15.294;2023-11-21T14:28:03;21.80;48.20
65038;DHT22;51605;47.040;15.294;2023-11-21T14:30:32;21.80;48.20
65038;DHT22;51605;47.040;15.294;2023-11-21T14:32:58;21.80;48.20
65038;DHT22;51605;47.040;15.294;2023-11-21T14:35:24;21.80;48.30
65038;DHT22;51605;47.040;15.294;2023-11-21T14:37:50;21.80;48.10
65038;DHT22;51605;47.040;15.294;2023-11-21T14:40:16;21.80;48.20
65038;DHT22;51605;47.040;15.294;2023-11-21T14:42:43;21.80;48.20
65038;DHT22;51605;47.040;15.294;2023-11-21T14:45:12;21.80;48.20
65038;DHT22;51605;47.040;15.294;2023-11-21T14:47:40;21.70;48.10
65038;DHT22;51605;47.040;15.294;2023-11-21T14:50:11;21.80;48.20
65038;DHT22;51605;47.040;15.294;2023-11-21T14:53:12;21.80;48.20
65038;DHT22;51605;47.040;15.294;2023-11-21T14:55:39;21.80;48.20
65038;DHT22;51605;47.040;15.294;2023-11-21T14:58:17;21.80;48.20
65038;DHT22;51605;47.040;15.294;2023-11-21T15:00:56;21.80;48.20
65038;DHT22;51605;47.040;15.294;2023-11-21T15:03:27;21.80;48.30
65038;DHT22;51605;47.040;15.294;2023-11-21T15:06:00;21.80;48.30
65038;DHT22;51605;47.040;15.294;2023-11-21T15:08:53;21.80;48.20
65038;DHT22;51605;47.040;15.294;2023-11-21T15:11:32;21.80;48.20
65038;DHT22;51605;47.040;15.294;2023-11-21T15:13:58;21.80;48.20
65038;DHT22;51605;47.040;15.294;2023-11-21T15:16:27;21.80;48.10
65038;DHT22;51605;47.040;15.294;2023-11-21T15:18:53;21.80;48.20
65038;DHT22;51605;47.040;15.294;2023-11-21T15:21:22;21.80;48.20
65038;DHT22;51605;47.040;15.294;2023-11-21T15:23:56;21.80;48.30
65038;DHT22;51605;47.040;15.294;2023-11-21T15:26:30;21.80;48.20
65038;DHT22;51605;47.040;15.294;2023-11-21T15:29:06;21.80;48.30
65038;DHT22;51605;47.040;15.294;2023-11-21T15:32:09;21.80;48.20
65038;DHT22;51605;47.040;15.294;2023-11-21T15:34:39;21.80;48.20